Time;durP1;ratioP1;P1;durP2;ratioP2;P2;SDS_P1;SDS_P2;PMS_P1;PMS_P2;Temp;Humidity;BMP_temperature;BMP_pressure;BME280_temperature;BME280_humidity;BME280_pressure;Samples;Min_cycle;Max_cycle;Signal;HPM_P1;HPM_P2
2023/05/08 00:00:16;;;;;;;60.67;54.13;;;;;21.40;100880.00;;;;2061034;28;20204;-72
2023/05/08 00:01:16;;;;;;;57.37;51.27;;;;;21.40;100888.00;;;;2061769;28;20204;-72
2023/05/08 00:02:16;;;;;;;63.00;56.27;;;;;21.40;100889.00;;;;2061563;28;20210;-72
2023/05/08 00:03:17;;;;;;;61.10;54.70;;;;;21.40;100882.00;;;;2050131;28;21069;-72
2023/05/08 00:04:19;;;;;;;56.43;50.60;;;;;21.40;100885.00;;;;2066314;28;20717;-72
2023/05/08 00:05:19;;;;;;;60.78;54.13;;;;;21.40;100885.00;;;;2057662;28;20581;-72
2023/05/08 00:06:20;;;;;;;54.90;49.00;;;;;21.40;100887.00;;;;2060340;28;20214;-72
2023/05/08 00:07:20;;;;;;;54.93;49.00;;;;;21.40;100886.00;;;;2067096;28;20568;-72
2023/05/08 00:08:20;;;;;;;56.40;50.40;;;;;21.40;100883.00;;;;2054659;28;20623;-72
2023/05/08 00:09:21;;;;;;;61.67;54.97;;;;;21.40;100880.00;;;;2065388;28;20618;-72
2023/05/08 00:10:21;;;;;;;52.70;47.20;;;;;21.40;100880.00;;;;2062500;28;20203;-72
2023/05/08 00:11:21;;;;;;;57.37;51.23;;;;;21.40;100881.00;;;;2061800;28;20227;-72
2023/05/08 00:12:22;;;;;;;56.60;50.17;;;;;21.40;100879.00;;;;2067706;28;20269;-72
2023/05/08 00:13:22;;;;;;;53.43;47.70;;;;;21.40;100882.00;;;;2052737;28;20234;-72
2023/05/08 00:14:23;;;;;;;54.73;48.87;;;;;21.40;100889.00;;;;2059656;28;20238;-72
2023/05/08 00:15:23;;;;;;;58.73;52.50;;;;;21.30;100883.00;;;;2059177;28;20211;-72
2023/05/08 00:16:23;;;;;;;53.00;47.30;;;;;21.30;100884.00;;;;2059850;28;20215;-72
2023/05/08 00:17:24;;;;;;;53.90;48.30;;;;;21.40;100884.00;;;;2065090;28;20215;-72
2023/05/08 00:18:25;;;;;;;53.00;47.43;;;;;21.40;100881.00;;;;2053233;28;20258;-72
2023/05/08 00:19:25;;;;;;;52.20;46.65;;;;;21.40;100881.00;;;;2060126;28;20303;-72
2023/05/08 00:20:26;;;;;;;53.30;47.57;;;;;21.40;100879.00;;;;2059404;28;20199;-72
2023/05/08 00:21:26;;;;;;;54.43;48.53;;;;;21.40;100882.00;;;;2063092;28;20202;-72
2023/05/08 00:22:26;;;;;;;52.60;46.90;;;;;21.40;100876.00;;;;2068883;28;20210;-72
2023/05/08 00:23:27;;;;;;;52.93;47.37;;;;;21.40;100882.00;;;;2054970;28;20211;-72
2023/05/08 00:24:27;;;;;;;58.27;52.07;;;;;21.30;100888.00;;;;2057224;28;20302;-72
2023/05/08 00:25:27;;;;;;;48.00;43.10;;;;;21.30;100884.00;;;;2058922;28;20262;-72
2023/05/08 00:26:27;;;;;;;54.43;48.63;;;;;21.40;100888.00;;;;2056839;28;20212;-72
2023/05/08 00:27:28;;;;;;;50.43;45.07;;;;;21.30;100882.00;;;;2058896;28;20581;-72
2023/05/08 00:28:28;;;;;;;54.47;48.77;;;;;21.40;100886.00;;;;2055717;28;22990;-72
2023/05/08 00:29:28;;;;;;;52.47;47.13;;;;;21.40;100876.00;;;;2062885;28;20646;-72
2023/05/08 00:30:29;;;;;;;52.23;46.70;;;;;21.40;100881.00;;;;2064062;28;20708;-72
2023/05/08 00:31:29;;;;;;;51.07;45.77;;;;;21.30;100879.00;;;;2062216;28;20542;-72
2023/05/08 00:32:29;;;;;;;49.20;43.90;;;;;21.30;100885.00;;;;2060922;28;20262;-72
2023/05/08 00:33:30;;;;;;;49.50;44.30;;;;;21.30;100878.00;;;;2052072;28;20228;-72
2023/05/08 00:34:30;;;;;;;51.90;46.37;;;;;21.30;100881.00;;;;2067070;28;20238;-72
2023/05/08 00:35:30;;;;;;;47.60;42.67;;;;;21.40;100880.00;;;;2062442;28;20297;-72
2023/05/08 00:36:31;;;;;;;51.00;45.63;;;;;21.30;100873.00;;;;2064709;28;20219;-72
2023/05/08 00:37:31;;;;;;;49.40;44.30;;;;;21.40;100890.00;;;;2063798;28;20219;-72
2023/05/08 00:38:32;;;;;;;51.30;45.93;;;;;21.30;100884.00;;;;2054250;28;20235;-72
2023/05/08 00:39:33;;;;;;;47.50;42.45;;;;;21.30;100882.00;;;;2063584;28;20215;-72
2023/05/08 00:40:33;;;;;;;50.83;45.53;;;;;21.30;100881.00;;;;2064016;28;20215;-72
2023/05/08 00:41:33;;;;;;;48.73;43.70;;;;;21.30;100882.00;;;;2057811;28;20219;-73
2023/05/08 00:42:34;;;;;;;51.03;45.67;;;;;21.30;100878.00;;;;2063905;28;20238;-73
2023/05/08 00:43:36;;;;;;;52.37;46.77;;;;;21.30;100879.00;;;;2055415;28;20219;-72
2023/05/08 00:44:38;;;;;;;52.80;47.20;;;;;21.40;100884.00;;;;2063959;28;20215;-73
2023/05/08 00:45:39;;;;;;;56.33;48.08;;;;;21.50;100881.00;;;;2060630;28;20334;-73
2023/05/08 00:46:40;;;;;;;50.97;45.60;;;;;21.40;100881.00;;;;2062897;28;20227;-73
2023/05/08 00:47:41;;;;;;;51.57;46.20;;;;;21.40;100887.00;;;;2054956;28;20592;-73
2023/05/08 00:48:41;;;;;;;53.20;47.60;;;;;21.40;100885.00;;;;2036774;28;20883;-73
2023/05/08 00:49:41;;;;;;;49.27;44.07;;;;;21.40;100885.00;;;;2054720;28;20215;-73
2023/05/08 00:50:42;;;;;;;52.07;46.50;;;;;21.40;100878.00;;;;2063021;28;20215;-73
2023/05/08 00:51:43;;;;;;;50.47;45.17;;;;;21.40;100888.00;;;;2063030;28;20261;-73
2023/05/08 00:52:43;;;;;;;50.85;45.47;;;;;21.50;100884.00;;;;2046688;28;20212;-73
2023/05/08 00:53:44;;;;;;;50.40;45.00;;;;;21.50;100882.00;;;;2039710;28;20617;-73
2023/05/08 00:54:44;;;;;;;49.10;43.90;;;;;21.40;100883.00;;;;2042746;28;20687;-73
2023/05/08 00:55:45;;;;;;;49.43;44.13;;;;;21.40;100887.00;;;;2043951;28;20223;-73
2023/05/08 00:56:45;;;;;;;51.40;45.83;;;;;21.40;100886.00;;;;2050635;28;20212;-73
2023/05/08 00:57:45;;;;;;;46.50;41.60;;;;;21.40;100889.00;;;;2062153;28;20273;-73
2023/05/08 00:58:46;;;;;;;47.70;42.80;;;;;21.40;100887.00;;;;2056778;28;20565;-73
2023/05/08 00:59:48;;;;;;;48.70;43.63;;;;;21.40;100891.00;;;;2060439;28;20520;-73
2023/05/08 01:00:48;;;;;;;47.20;42.40;;;;;21.40;100884.00;;;;2063045;28;20599;-73
2023/05/08 01:01:48;;;;;;;47.70;42.60;;;;;21.30;100888.00;;;;2062351;28;20215;-73
2023/05/08 01:02:49;;;;;;;49.03;43.83;;;;;21.40;100887.00;;;;2054892;28;20565;-73
2023/05/08 01:03:49;;;;;;;46.50;41.67;;;;;21.40;100887.00;;;;2045449;28;20234;-73
2023/05/08 01:04:50;;;;;;;47.27;42.30;;;;;21.40;100885.00;;;;2061960;28;20203;-73
2023/05/08 01:05:50;;;;;;;47.00;42.17;;;;;21.40;100881.00;;;;2062947;28;20222;-73
2023/05/08 01:06:50;;;;;;;47.33;42.33;;;;;21.40;100881.00;;;;2062042;28;20416;-73
2023/05/08 01:07:51;;;;;;;47.83;42.77;;;;;21.40;100882.00;;;;2063561;28;20679;-73
2023/05/08 01:08:51;;;;;;;43.47;39.13;;;;;21.40;100882.00;;;;2051931;28;20227;-73
2023/05/08 01:09:51;;;;;;;48.03;42.93;;;;;21.40;100889.00;;;;2054459;28;20208;-73
2023/05/08 01:10:57;;;;;;;44.77;39.03;;;;;21.40;100887.00;;;;2054880;28;20207;-73
2023/05/08 01:12:02;;;;;;;42.97;38.20;;;;;21.40;100882.00;;;;2060474;28;20761;-73
2023/05/08 01:13:10;;;;;;;45.75;40.00;;;;;21.40;100885.00;;;;2063160;28;20254;-74
2023/05/08 01:14:41;;;;;;;45.72;40.92;;;;;21.40;100883.00;;;;2049887;28;20723;-73
2023/05/08 01:15:45;;;;;;;43.88;39.20;;;;;21.40;100889.00;;;;2057183;28;20219;-73
2023/05/08 01:17:01;;;;;;;43.00;38.40;;;;;21.50;100892.00;;;;2054304;28;21028;-73
2023/05/08 01:18:10;;;;;;;42.58;38.08;;;;;21.50;100886.00;;;;2051134;28;20224;-73
2023/05/08 01:19:26;;;;;;;42.83;38.40;;;;;21.50;100885.00;;;;2046206;28;20229;-73
2023/05/08 01:20:47;;;;;;;44.92;40.05;;;;;21.50;100877.00;;;;2056489;28;20208;-73
2023/05/08 01:21:50;;;;;;;42.42;37.92;;;;;21.50;100888.00;;;;2054774;28;20290;-73
2023/05/08 01:23:08;;;;;;;44.22;39.45;;;;;21.40;100887.00;;;;2047517;28;20223;-73
2023/05/08 01:24:10;;;;;;;44.60;39.22;;;;;21.50;100884.00;;;;2037472;28;20251;-73
2023/05/08 01:25:27;;;;;;;44.25;39.40;;;;;21.50;100891.00;;;;2058710;28;20285;-73
2023/05/08 01:27:15;;;;;;;42.25;37.83;;;;;21.50;100889.00;;;;2062198;28;20211;-74
2023/05/08 01:28:37;;;;;;;40.45;36.25;;;;;21.50;100893.00;;;;2023794;29;20213;-71
2023/05/08 01:29:54;;;;;;;39.17;34.95;;;;;21.40;100889.00;;;;2032704;29;20217;-71
2023/05/08 01:31:11;;;;;;;37.35;33.35;;;;;21.40;100890.00;;;;2052076;28;20219;-71
2023/05/08 01:32:14;;;;;;;39.58;35.28;;;;;21.40;100888.00;;;;2060936;28;20211;-72
2023/05/08 01:33:54;;;;;;;37.72;33.63;;;;;21.40;100890.00;;;;2051660;28;20223;-72
2023/05/08 01:35:16;;;;;;;39.22;35.03;;;;;21.40;100884.00;;;;2070541;28;20809;-72
2023/05/08 01:36:38;;;;;;;39.55;35.25;;;;;21.40;100893.00;;;;2062926;28;20247;-72
2023/05/08 01:38:04;;;;;;;40.45;36.25;;;;;21.30;100892.00;;;;2059638;28;20209;-72
2023/05/08 01:39:17;;;;;;;38.15;34.25;;;;;21.30;100892.00;;;;2043376;28;20219;-72
2023/05/08 01:40:27;;;;;;;37.05;33.25;;;;;21.40;100892.00;;;;2065827;28;20261;-72
2023/05/08 01:41:27;;;;;;;38.90;34.90;;;;;21.30;100896.00;;;;2069716;28;20249;-72
2023/05/08 01:42:27;;;;;;;38.47;34.47;;;;;21.30;100898.00;;;;2062084;28;20225;-72
2023/05/08 01:43:45;;;;;;;35.47;31.77;;;;;21.30;100895.00;;;;2052860;28;20217;-72
2023/05/08 01:44:48;;;;;;;38.05;34.22;;;;;21.40;100892.00;;;;2052429;28;20250;-72
2023/05/08 01:45:49;;;;;;;38.80;34.88;;;;;21.30;100890.00;;;;2047238;28;20275;-72
2023/05/08 01:46:49;;;;;;;34.90;31.38;;;;;21.30;100887.00;;;;2040520;28;20217;-72
2023/05/08 01:48:21;;;;;;;37.20;33.30;;;;;21.30;100888.00;;;;2062582;28;20241;-72
2023/05/08 01:49:38;;;;;;;35.60;31.90;;;;;21.30;100895.00;;;;2047650;28;20258;-72
2023/05/08 01:50:43;;;;;;;36.70;32.95;;;;;21.30;100894.00;;;;2064183;28;20724;-72
2023/05/08 01:51:45;;;;;;;35.17;31.52;;;;;21.30;100892.00;;;;2063450;28;20219;-72
2023/05/08 01:52:47;;;;;;;34.03;30.60;;;;;21.30;100897.00;;;;2056443;28;20215;-72
2023/05/08 01:53:50;;;;;;;33.30;29.90;;;;;21.30;100895.00;;;;2042254;28;20238;-72
2023/05/08 01:55:13;;;;;;;36.70;32.75;;;;;21.30;100899.00;;;;2047935;28;20290;-72
2023/05/08 01:56:16;;;;;;;35.35;31.75;;;;;21.30;100893.00;;;;2052135;28;20288;-72
2023/05/08 01:57:16;;;;;;;35.88;32.05;;;;;21.30;100894.00;;;;2048363;28;20212;-72
2023/05/08 01:58:17;;;;;;;35.07;31.57;;;;;21.30;100892.00;;;;2042733;28;20224;-72
2023/05/08 01:59:20;;;;;;;34.00;30.47;;;;;21.30;100898.00;;;;2071242;28;20634;-72
2023/05/08 02:00:21;;;;;;;35.85;32.25;;;;;21.30;100894.00;;;;2063437;28;20216;-72
2023/05/08 02:01:22;;;;;;;34.83;31.33;;;;;21.30;100890.00;;;;2062977;28;20288;-72
2023/05/08 02:02:22;;;;;;;34.92;31.42;;;;;21.30;100900.00;;;;2056338;28;20494;-72
2023/05/08 02:03:22;;;;;;;36.10;32.30;;;;;21.30;100897.00;;;;2045890;28;20291;-72
2023/05/08 02:04:23;;;;;;;34.20;30.80;;;;;21.30;100898.00;;;;2058814;28;20204;-72
2023/05/08 02:05:23;;;;;;;36.67;32.90;;;;;21.30;100899.00;;;;2056012;28;20270;-72
2023/05/08 02:06:26;;;;;;;34.40;30.87;;;;;21.30;100893.00;;;;2063451;28;20218;-72
2023/05/08 02:07:26;;;;;;;34.10;30.58;;;;;21.30;100905.00;;;;2056320;28;20281;-72
2023/05/08 02:08:28;;;;;;;34.47;30.90;;;;;21.30;100906.00;;;;2041959;28;20212;-72
2023/05/08 02:09:28;;;;;;;35.60;31.92;;;;;21.30;100899.00;;;;2063949;28;20242;-72
2023/05/08 02:10:29;;;;;;;35.90;32.00;;;;;21.30;100908.00;;;;2056041;28;20203;-72
2023/05/08 02:11:30;;;;;;;35.93;32.13;;;;;21.30;100913.00;;;;2054765;28;20208;-72
2023/05/08 02:12:31;;;;;;;34.03;30.52;;;;;21.30;100906.00;;;;2055159;28;20216;-72
2023/05/08 02:13:31;;;;;;;33.97;30.50;;;;;21.30;100885.00;;;;2039812;28;20370;-72
2023/05/08 02:14:31;;;;;;;36.73;32.80;;;;;21.30;100917.00;;;;2060712;28;20214;-72
2023/05/08 02:15:35;;;;;;;36.87;33.00;;;;;21.30;100913.00;;;;2063856;28;20243;-72
2023/05/08 02:16:35;;;;;;;37.25;33.20;;;;;21.30;100914.00;;;;2056868;28;20229;-72
2023/05/08 02:17:36;;;;;;;38.83;34.60;;;;;21.30;100914.00;;;;2067155;28;20226;-72
2023/05/08 02:18:37;;;;;;;38.95;34.85;;;;;21.30;100915.00;;;;2047199;28;20246;-72
2023/05/08 02:19:38;;;;;;;37.20;33.33;;;;;21.30;100919.00;;;;2045564;28;20669;-72
2023/05/08 02:20:39;;;;;;;37.60;33.60;;;;;21.30;100902.00;;;;2065750;28;20993;-72
2023/05/08 02:21:39;;;;;;;35.17;31.37;;;;;21.30;100917.00;;;;2061091;28;20307;-72
2023/05/08 02:22:43;;;;;;;36.67;32.90;;;;;21.30;100921.00;;;;2057841;28;20657;-72
2023/05/08 02:23:44;;;;;;;36.65;32.67;;;;;21.30;100914.00;;;;2054740;28;20303;-73
2023/05/08 02:24:44;;;;;;;37.00;33.10;;;;;21.30;100921.00;;;;2063962;28;20342;-72
2023/05/08 02:25:44;;;;;;;35.07;31.47;;;;;21.30;100914.00;;;;2038260;28;20232;-72
2023/05/08 02:26:45;;;;;;;35.10;31.40;;;;;21.20;100914.00;;;;2038954;28;20217;-72
2023/05/08 02:27:46;;;;;;;36.57;32.80;;;;;21.30;100914.00;;;;2054978;28;20254;-73
2023/05/08 02:28:47;;;;;;;36.35;32.55;;;;;21.30;100915.00;;;;2031591;28;20213;-72
2023/05/08 02:29:48;;;;;;;38.23;32.30;;;;;21.30;100912.00;;;;2054911;28;20222;-72
2023/05/08 02:30:49;;;;;;;32.95;29.55;;;;;21.30;100914.00;;;;2064055;28;21020;-72
2023/05/08 02:31:50;;;;;;;34.40;30.77;;;;;21.30;100916.00;;;;2056379;28;20212;-72
2023/05/08 02:32:50;;;;;;;37.27;33.20;;;;;21.30;100923.00;;;;2055547;28;20443;-72
2023/05/08 02:33:51;;;;;;;36.87;32.90;;;;;21.30;100921.00;;;;2038273;28;20272;-72
2023/05/08 02:34:51;;;;;;;36.30;31.93;;;;;21.20;100919.00;;;;2045425;28;20610;-72
2023/05/08 02:35:52;;;;;;;36.60;32.63;;;;;21.30;100924.00;;;;2058278;28;20204;-72
2023/05/08 02:36:52;;;;;;;36.17;32.20;;;;;21.30;100922.00;;;;2056128;28;20711;-72
2023/05/08 02:37:54;;;;;;;34.97;31.20;;;;;21.30;100912.00;;;;2069045;28;20206;-72
2023/05/08 02:38:55;;;;;;;34.35;30.73;;;;;21.30;100923.00;;;;2055044;28;20215;-72
2023/05/08 02:39:55;;;;;;;36.28;32.47;;;;;21.30;100927.00;;;;2063718;28;20231;-72
2023/05/08 02:40:57;;;;;;;34.03;30.63;;;;;21.30;100925.00;;;;2063879;28;20303;-72
2023/05/08 02:41:58;;;;;;;36.00;31.15;;;;;21.30;100928.00;;;;2068511;28;20656;-72
2023/05/08 02:42:58;;;;;;;38.63;33.43;;;;;21.20;100927.00;;;;2079302;28;20220;-72
2023/05/08 02:43:59;;;;;;;34.93;31.20;;;;;21.20;100919.00;;;;2041334;28;20215;-73
2023/05/08 02:44:59;;;;;;;34.67;30.97;;;;;21.30;100921.00;;;;2056153;28;20218;-72
2023/05/08 02:46:15;;;;;;;33.57;30.27;;;;;21.30;100927.00;;;;2066233;28;20237;-72
2023/05/08 02:47:26;;;;;;;34.10;30.42;;;;;21.30;100915.00;;;;2066987;28;20299;-73
2023/05/08 02:48:34;;;;;;;35.85;29.42;;;;;21.20;100913.00;;;;2053184;28;20558;-72
2023/05/08 02:49:46;;;;;;;36.00;32.10;;;;;21.30;100929.00;;;;2051764;28;20364;-72
2023/05/08 02:50:54;;;;;;;34.25;30.40;;;;;21.20;100924.00;;;;2059726;28;20227;-72
2023/05/08 02:52:16;;;;;;;35.38;31.23;;;;;21.20;100924.00;;;;2065502;28;20941;-72
2023/05/08 02:53:19;;;;;;;33.15;29.73;;;;;21.20;100917.00;;;;2054251;28;20663;-72
2023/05/08 02:54:38;;;;;;;33.53;29.92;;;;;21.20;100927.00;;;;2064046;28;20219;-72
2023/05/08 02:55:47;;;;;;;34.42;30.75;;;;;21.20;100913.00;;;;2063409;28;20289;-72
2023/05/08 02:57:04;;;;;;;33.35;29.83;;;;;21.20;100918.00;;;;2063756;28;20710;-72
2023/05/08 02:58:17;;;;;;;33.17;29.60;;;;;21.20;100898.00;;;;2050868;28;20310;-72
2023/05/08 02:59:19;;;;;;;33.40;29.80;;;;;21.20;100906.00;;;;2064230;28;20219;-72
2023/05/08 03:00:22;;;;;;;31.88;28.65;;;;;21.20;100921.00;;;;2062733;28;20203;-72
2023/05/08 03:01:28;;;;;;;32.58;29.25;;;;;21.20;100910.00;;;;2060344;28;20203;-72
2023/05/08 03:02:38;;;;;;;32.70;29.27;;;;;21.20;100911.00;;;;2063433;28;20213;-72
2023/05/08 03:03:43;;;;;;;32.70;29.20;;;;;21.20;100915.00;;;;2043552;28;20247;-72
2023/05/08 03:04:50;;;;;;;35.42;30.30;;;;;21.20;100912.00;;;;2064239;28;20314;-72
2023/05/08 03:05:52;;;;;;;32.65;29.25;;;;;21.20;100912.00;;;;2056854;28;20295;-72
2023/05/08 03:06:53;;;;;;;33.47;29.90;;;;;21.20;100915.00;;;;2063275;28;20211;-72
2023/05/08 03:07:54;;;;;;;34.08;30.38;;;;;21.20;100913.00;;;;2056553;28;20287;-72
2023/05/08 03:08:55;;;;;;;33.00;29.58;;;;;21.20;100908.00;;;;2053107;28;20219;-72
2023/05/08 03:10:01;;;;;;;33.17;29.57;;;;;21.20;100909.00;;;;2057503;28;20903;-72
2023/05/08 03:11:04;;;;;;;34.33;30.63;;;;;21.20;100914.00;;;;2048100;28;20216;-72
2023/05/08 03:12:07;;;;;;;35.80;31.90;;;;;21.20;100921.00;;;;2051061;28;20243;-72
2023/05/08 03:13:08;;;;;;;35.47;31.42;;;;;21.20;100921.00;;;;2055898;28;20881;-72
2023/05/08 03:14:10;;;;;;;32.60;29.20;;;;;21.20;100913.00;;;;2062024;28;20228;-72
2023/05/08 03:15:27;;;;;;;33.40;29.90;;;;;21.20;100913.00;;;;2073261;28;21007;-72
2023/05/08 03:16:27;;;;;;;32.33;28.90;;;;;21.20;100914.00;;;;2063099;28;20210;-72
2023/05/08 03:17:27;;;;;;;32.97;29.50;;;;;21.20;100919.00;;;;2063943;28;20203;-72
2023/05/08 03:18:34;;;;;;;34.77;31.00;;;;;21.20;100923.00;;;;2047275;28;20274;-72
2023/05/08 03:19:36;;;;;;;36.53;31.42;;;;;21.20;100912.00;;;;2061473;28;20302;-72
2023/05/08 03:20:41;;;;;;;31.10;27.90;;;;;21.20;100925.00;;;;2068169;28;20683;-72
2023/05/08 03:21:42;;;;;;;34.80;31.10;;;;;21.20;100923.00;;;;2068828;28;20233;-72
2023/05/08 03:22:42;;;;;;;35.77;31.67;;;;;21.20;100899.00;;;;2064933;28;20297;-72
2023/05/08 03:23:43;;;;;;;35.50;30.57;;;;;21.20;100908.00;;;;2053118;28;21227;-72
2023/05/08 03:24:43;;;;;;;34.53;30.23;;;;;21.20;100900.00;;;;2051250;28;20215;-73
2023/05/08 03:25:43;;;;;;;33.73;30.07;;;;;21.20;100921.00;;;;2038471;28;20228;-72
2023/05/08 03:26:44;;;;;;;32.37;28.97;;;;;21.20;100891.00;;;;2049642;28;20236;-72
2023/05/08 03:27:44;;;;;;;37.27;32.30;;;;;21.20;100918.00;;;;2063075;28;20302;-72
2023/05/08 03:28:47;;;;;;;31.90;28.60;;;;;21.20;100917.00;;;;2054007;28;20639;-72
2023/05/08 03:29:49;;;;;;;32.13;28.17;;;;;21.20;100915.00;;;;2061192;28;20238;-72
2023/05/08 03:30:49;;;;;;;31.48;28.23;;;;;21.20;100914.00;;;;2065963;28;20211;-72
2023/05/08 03:31:50;;;;;;;32.17;28.77;;;;;21.20;100909.00;;;;2058593;28;20228;-72
2023/05/08 03:32:50;;;;;;;31.80;28.40;;;;;21.20;100916.00;;;;2063189;28;20234;-72
2023/05/08 03:33:54;;;;;;;32.50;29.10;;;;;21.20;100856.00;;;;2038056;28;20588;-72
2023/05/08 03:34:54;;;;;;;32.40;28.95;;;;;21.20;100912.00;;;;2056386;28;20779;-72
2023/05/08 03:35:55;;;;;;;31.53;28.00;;;;;21.20;100905.00;;;;2063788;28;20211;-72
2023/05/08 03:36:55;;;;;;;34.03;30.33;;;;;21.20;100892.00;;;;2057901;28;20211;-72
2023/05/08 03:37:55;;;;;;;33.07;29.30;;;;;21.20;100907.00;;;;2077427;28;20222;-72
2023/05/08 03:38:56;;;;;;;32.73;29.33;;;;;21.20;100907.00;;;;2045990;28;20658;-72
2023/05/08 03:39:56;;;;;;;32.07;28.67;;;;;21.20;100906.00;;;;2063076;28;20802;-72
2023/05/08 03:40:57;;;;;;;31.90;28.60;;;;;21.20;100901.00;;;;2062803;28;20706;-72
2023/05/08 03:41:57;;;;;;;30.90;27.87;;;;;21.20;100897.00;;;;2047131;28;20735;-72
2023/05/08 03:42:57;;;;;;;31.63;28.37;;;;;21.10;100897.00;;;;2060872;28;20217;-72
2023/05/08 03:43:58;;;;;;;31.27;28.00;;;;;21.20;100907.00;;;;2039169;28;20681;-72
2023/05/08 03:44:58;;;;;;;31.33;28.23;;;;;21.10;100895.00;;;;2055756;28;20243;-72
2023/05/08 03:45:58;;;;;;;34.73;31.00;;;;;21.20;100902.00;;;;2060063;28;20362;-72
2023/05/08 03:46:59;;;;;;;31.73;28.23;;;;;21.20;100899.00;;;;2052667;28;20224;-72
2023/05/08 03:47:59;;;;;;;31.87;28.47;;;;;21.20;100879.00;;;;2070936;28;20218;-72
2023/05/08 03:49:01;;;;;;;30.73;27.43;;;;;21.20;100898.00;;;;2056998;28;20242;-72
2023/05/08 03:50:02;;;;;;;29.20;26.25;;;;;21.20;100899.00;;;;2063061;28;20226;-72
2023/05/08 03:51:03;;;;;;;30.23;27.00;;;;;21.20;100897.00;;;;2054914;28;20298;-72
2023/05/08 03:52:03;;;;;;;33.57;30.07;;;;;21.20;100895.00;;;;2063478;28;20297;-72
2023/05/08 03:53:04;;;;;;;31.40;28.00;;;;;21.20;100898.00;;;;2056579;28;20463;-72
2023/05/08 03:54:04;;;;;;;34.03;30.47;;;;;21.20;100902.00;;;;2053121;28;20675;-72
2023/05/08 03:55:05;;;;;;;29.40;26.37;;;;;21.20;100898.00;;;;2064312;28;20682;-72
2023/05/08 03:56:05;;;;;;;32.30;28.57;;;;;21.20;100896.00;;;;2058187;28;20329;-72
2023/05/08 03:57:05;;;;;;;29.70;26.60;;;;;21.20;100901.00;;;;2059994;28;20484;-72
2023/05/08 03:58:12;;;;;;;33.07;28.83;;;;;21.20;100880.00;;;;2063142;28;20222;-72
2023/05/08 03:59:16;;;;;;;30.23;27.17;;;;;21.20;100891.00;;;;2055155;28;20244;-72
2023/05/08 04:00:20;;;;;;;31.08;27.67;;;;;21.20;100895.00;;;;2055466;28;20286;-72
2023/05/08 04:01:40;;;;;;;32.58;29.23;;;;;21.10;100896.00;;;;2048001;28;20720;-72
2023/05/08 04:02:45;;;;;;;30.35;27.05;;;;;21.20;100898.00;;;;2050612;28;20715;-72
2023/05/08 04:04:00;;;;;;;30.02;26.85;;;;;21.20;100905.00;;;;2049660;28;20698;-72
2023/05/08 04:05:25;;;;;;;32.45;28.95;;;;;21.10;100891.00;;;;2065141;28;20230;-72
2023/05/08 04:06:30;;;;;;;30.42;27.23;;;;;21.20;100904.00;;;;2062530;28;20219;-72
2023/05/08 04:07:34;;;;;;;29.98;26.75;;;;;21.10;100904.00;;;;2063539;28;20295;-72
2023/05/08 04:08:41;;;;;;;30.70;27.63;;;;;21.10;100899.00;;;;2050109;28;20223;-72
2023/05/08 04:09:54;;;;;;;29.48;26.30;;;;;21.10;100907.00;;;;2039294;28;20640;-72
2023/05/08 04:11:10;;;;;;;29.55;26.25;;;;;21.20;100905.00;;;;2048623;28;20220;-72
2023/05/08 04:12:18;;;;;;;29.33;25.92;;;;;21.20;100912.00;;;;2047232;28;20926;-72
2023/05/08 04:13:21;;;;;;;29.58;26.35;;;;;21.20;100923.00;;;;2042778;28;20262;-72
2023/05/08 04:14:23;;;;;;;29.35;26.27;;;;;21.20;100912.00;;;;2062886;28;20782;-71
2023/05/08 04:15:26;;;;;;;29.38;26.40;;;;;21.10;100908.00;;;;2059671;28;20633;-72
2023/05/08 04:16:27;;;;;;;29.67;26.48;;;;;21.10;100912.00;;;;2054162;28;20348;-72
2023/05/08 04:17:40;;;;;;;30.08;26.85;;;;;21.10;100908.00;;;;2051465;28;20287;-72
2023/05/08 04:18:43;;;;;;;27.55;24.85;;;;;21.10;100903.00;;;;2053247;28;20309;-72
2023/05/08 04:19:45;;;;;;;28.27;25.33;;;;;21.10;100918.00;;;;2066403;28;20214;-72
2023/05/08 04:20:46;;;;;;;28.85;25.75;;;;;21.10;100914.00;;;;2056546;28;20231;-72
2023/05/08 04:21:46;;;;;;;28.92;26.02;;;;;21.10;100902.00;;;;2063275;28;20265;-72
2023/05/08 04:22:47;;;;;;;29.40;26.17;;;;;21.10;100904.00;;;;2053458;28;20285;-72
2023/05/08 04:23:48;;;;;;;28.07;25.07;;;;;21.10;100909.00;;;;2042559;28;20222;-72
2023/05/08 04:24:49;;;;;;;28.35;25.33;;;;;21.10;100909.00;;;;2045404;28;20212;-72
2023/05/08 04:25:50;;;;;;;27.60;24.70;;;;;21.20;100910.00;;;;2044943;28;20224;-72
2023/05/08 04:26:51;;;;;;;29.63;26.60;;;;;21.10;100906.00;;;;2056096;28;20215;-72
2023/05/08 04:27:52;;;;;;;28.63;25.60;;;;;21.10;100912.00;;;;2063042;28;20234;-72
2023/05/08 04:28:52;;;;;;;26.70;23.90;;;;;21.10;100900.00;;;;2053077;28;20219;-72
2023/05/08 04:29:52;;;;;;;27.37;24.53;;;;;21.10;100913.00;;;;2054622;28;20204;-72
2023/05/08 04:30:52;;;;;;;27.27;24.37;;;;;21.10;100912.00;;;;2054103;28;20211;-72
2023/05/08 04:31:53;;;;;;;28.40;25.50;;;;;21.10;100920.00;;;;2063202;28;20262;-72
2023/05/08 04:32:53;;;;;;;26.10;23.40;;;;;21.10;100915.00;;;;2054312;28;20200;-72
2023/05/08 04:33:54;;;;;;;28.03;25.03;;;;;21.10;100900.00;;;;2045692;28;20211;-72
2023/05/08 04:34:55;;;;;;;27.30;24.40;;;;;21.10;100913.00;;;;2062302;28;20315;-72
2023/05/08 04:35:56;;;;;;;25.23;22.63;;;;;21.10;100879.00;;;;2065986;28;20206;-72
2023/05/08 04:36:56;;;;;;;27.47;24.47;;;;;21.10;100921.00;;;;2071014;28;20254;-72
2023/05/08 04:37:57;;;;;;;26.17;23.57;;;;;21.10;100915.00;;;;2062923;28;20445;-72
2023/05/08 04:38:57;;;;;;;24.80;22.20;;;;;21.10;100912.00;;;;2052143;28;20294;-72
2023/05/08 04:39:58;;;;;;;26.70;23.77;;;;;21.10;100919.00;;;;2062867;28;20218;-72
2023/05/08 04:40:59;;;;;;;26.37;23.60;;;;;21.10;100919.00;;;;2064965;28;20210;-72
2023/05/08 04:42:02;;;;;;;25.27;22.60;;;;;21.10;100926.00;;;;2058563;28;20203;-72
2023/05/08 04:43:02;;;;;;;26.33;23.60;;;;;21.10;100925.00;;;;2056175;28;20545;-72
2023/05/08 04:44:03;;;;;;;28.00;24.70;;;;;21.10;100921.00;;;;2055573;28;20252;-72
2023/05/08 04:45:04;;;;;;;27.33;23.90;;;;;21.10;100921.00;;;;2062774;28;20234;-72
2023/05/08 04:46:05;;;;;;;25.15;22.55;;;;;21.10;100921.00;;;;2062162;28;23294;-72
2023/05/08 04:47:05;;;;;;;25.87;23.17;;;;;21.10;100931.00;;;;2062351;28;20297;-72
2023/05/08 04:48:05;;;;;;;24.23;21.83;;;;;21.10;100924.00;;;;2062912;28;20816;-72
2023/05/08 04:49:06;;;;;;;24.80;22.33;;;;;21.10;100932.00;;;;2049729;28;20655;-72
2023/05/08 04:50:06;;;;;;;25.63;22.60;;;;;21.10;100926.00;;;;2062524;28;20238;-72
2023/05/08 04:51:06;;;;;;;27.80;23.73;;;;;21.10;100931.00;;;;2068883;28;20229;-72
2023/05/08 04:52:07;;;;;;;25.30;22.80;;;;;21.10;100920.00;;;;2062670;28;20908;-72
2023/05/08 04:53:07;;;;;;;24.50;21.93;;;;;21.10;100932.00;;;;2056970;28;20282;-72
2023/05/08 04:54:07;;;;;;;23.53;21.23;;;;;21.10;100933.00;;;;2059985;28;20218;-72
2023/05/08 04:55:08;;;;;;;22.70;20.40;;;;;21.10;100932.00;;;;2070333;28;20237;-72
2023/05/08 04:56:08;;;;;;;23.97;21.47;;;;;21.10;100934.00;;;;2058890;28;20589;-72
2023/05/08 04:57:09;;;;;;;23.27;20.87;;;;;21.10;100939.00;;;;2062597;28;20214;-72
2023/05/08 04:58:09;;;;;;;24.67;21.90;;;;;21.10;100938.00;;;;2055624;28;20305;-72
2023/05/08 04:59:10;;;;;;;24.40;21.90;;;;;21.10;100936.00;;;;2058478;28;20221;-72
2023/05/08 05:00:11;;;;;;;23.80;21.10;;;;;21.10;100932.00;;;;2065081;28;20710;-72
2023/05/08 05:01:11;;;;;;;24.83;22.13;;;;;21.10;100930.00;;;;2061571;28;20219;-72
2023/05/08 05:02:11;;;;;;;23.50;21.17;;;;;21.10;100931.00;;;;2064282;28;20214;-72
2023/05/08 05:03:12;;;;;;;22.37;20.17;;;;;21.10;100939.00;;;;2056750;28;20285;-72
2023/05/08 05:04:12;;;;;;;23.07;20.67;;;;;21.20;100935.00;;;;2066345;28;20280;-72
2023/05/08 05:05:12;;;;;;;23.13;20.83;;;;;21.10;100942.00;;;;2062105;28;20214;-72
2023/05/08 05:06:13;;;;;;;22.80;20.60;;;;;21.10;100947.00;;;;2055967;28;20222;-72